createdAt,value
2023-05-25T00:00:08.341Z,2.23
2023-05-25T00:02:37.107Z,2.57
2023-05-25T00:05:06.550Z,2.43
2023-05-25T00:07:34.971Z,2.33
2023-05-25T00:10:03.581Z,2.23
2023-05-25T00:12:33.567Z,2.40
2023-05-25T00:15:02.169Z,2.50
2023-05-25T00:17:32.277Z,2.53
2023-05-25T00:20:08.189Z,2.30
2023-05-25T00:22:37.105Z,2.30
2023-05-25T00:25:06.945Z,2.50
2023-05-25T00:27:36.775Z,2.37
2023-05-25T00:30:05.873Z,2.07
2023-05-25T00:32:34.387Z,2.33
2023-05-25T00:35:02.875Z,2.00
2023-05-25T00:37:31.311Z,2.57
2023-05-25T00:39:59.777Z,2.13
2023-05-25T00:42:29.851Z,2.07
2023-05-25T00:44:59.975Z,2.13
2023-05-25T00:47:29.442Z,2.13
2023-05-25T00:49:59.092Z,2.10
2023-05-25T00:52:28.168Z,2.00
2023-05-25T00:55:00.445Z,2.30
2023-05-25T00:57:34.313Z,2.20
2023-05-25T01:00:07.324Z,2.40
2023-05-25T01:02:36.545Z,3.20
2023-05-25T01:05:10.513Z,2.30
2023-05-25T01:07:40.622Z,2.20
2023-05-25T01:10:12.554Z,2.10
2023-05-25T01:12:44.086Z,2.27
2023-05-25T01:15:14.441Z,2.63
2023-05-25T01:17:43.821Z,2.30
2023-05-25T01:20:13.804Z,2.30
2023-05-25T01:22:49.385Z,2.40
2023-05-25T01:25:25.303Z,2.20
2023-05-25T01:27:59.005Z,2.57
2023-05-25T01:30:28.336Z,2.20
2023-05-25T01:32:58.562Z,2.03
2023-05-25T01:35:28.710Z,2.20
2023-05-25T01:38:00.447Z,2.40
2023-05-25T01:40:29.267Z,2.00
2023-05-25T01:42:57.796Z,2.17
2023-05-25T01:45:28.475Z,2.50
2023-05-25T01:48:07.574Z,2.17
2023-05-25T01:50:42.920Z,2.83
2023-05-25T01:53:20.578Z,2.73
2023-05-25T01:55:55.696Z,2.30
2023-05-25T01:58:26.116Z,2.00
2023-05-25T02:00:56.711Z,2.10
2023-05-25T02:03:25.338Z,3.33
2023-05-25T02:05:53.890Z,2.30
2023-05-25T02:08:23.911Z,2.17
2023-05-25T02:10:52.869Z,2.20
2023-05-25T02:13:21.302Z,2.27
2023-05-25T02:15:49.846Z,2.77
2023-05-25T02:18:20.904Z,2.33
2023-05-25T02:20:49.519Z,2.53
2023-05-25T02:23:18.970Z,2.50
2023-05-25T02:25:48.890Z,2.63
2023-05-25T02:28:17.991Z,2.30
2023-05-25T02:30:46.395Z,2.57
2023-05-25T02:33:15.049Z,2.10
2023-05-25T02:35:44.590Z,2.17
2023-05-25T02:38:13.337Z,2.53
2023-05-25T02:40:41.984Z,2.23
2023-05-25T02:43:11.917Z,2.37
2023-05-25T02:45:41.217Z,2.33
2023-05-25T02:48:12.472Z,2.50
2023-05-25T02:50:40.908Z,2.37
2023-05-25T02:53:13.591Z,2.47
2023-05-25T02:55:43.779Z,2.13
2023-05-25T02:58:19.888Z,2.67
2023-05-25T03:01:19.227Z,2.03
2023-05-25T03:03:54.594Z,2.70
2023-05-25T03:06:26.536Z,2.30
2023-05-25T03:09:09.785Z,2.27
2023-05-25T03:11:41.173Z,2.87
2023-05-25T03:14:14.687Z,2.27
2023-05-25T03:16:46.510Z,2.57
2023-05-25T03:19:15.082Z,2.50
2023-05-25T03:21:44.111Z,2.37
2023-05-25T03:24:12.772Z,2.63
2023-05-25T03:26:41.772Z,2.47
2023-05-25T03:29:10.537Z,3.00
2023-05-25T03:31:40.836Z,2.50
2023-05-25T03:34:09.873Z,2.27
2023-05-25T03:36:40.005Z,2.43
2023-05-25T03:39:10.643Z,2.53
2023-05-25T03:41:39.314Z,2.23
2023-05-25T03:44:08.397Z,2.43
2023-05-25T03:46:36.939Z,2.47
2023-05-25T03:49:06.881Z,2.77
2023-05-25T03:51:38.069Z,2.60
2023-05-25T03:54:12.530Z,2.73
2023-05-25T03:56:41.407Z,3.40
2023-05-25T03:59:10.000Z,2.40
2023-05-25T04:01:40.173Z,2.70
2023-05-25T04:04:10.119Z,2.90
2023-05-25T04:06:39.211Z,2.30
2023-05-25T04:09:09.094Z,2.47
2023-05-25T04:11:37.518Z,2.47
2023-05-25T04:14:05.967Z,2.60
2023-05-25T04:16:37.886Z,2.40
2023-05-25T04:19:06.507Z,2.10
2023-05-25T04:21:36.414Z,2.67
2023-05-25T04:24:05.621Z,2.40
2023-05-25T04:26:35.461Z,2.50
2023-05-25T04:29:04.943Z,2.80
2023-05-25T04:31:59.514Z,2.53
2023-05-25T04:34:46.890Z,2.73
2023-05-25T04:37:23.222Z,2.53
2023-05-25T04:39:52.572Z,2.30
2023-05-25T04:42:24.042Z,2.60
2023-05-25T04:44:56.542Z,1.93
2023-05-25T04:47:26.054Z,2.50
2023-05-25T04:49:55.685Z,2.90
2023-05-25T04:52:25.950Z,2.07
2023-05-25T04:54:55.638Z,2.80
2023-05-25T04:57:24.134Z,2.60
2023-05-25T04:59:53.084Z,3.07
2023-05-25T05:02:21.677Z,2.50
2023-05-25T05:04:53.666Z,2.70
2023-05-25T05:07:22.998Z,2.70
2023-05-25T05:09:52.987Z,2.40
2023-05-25T05:12:21.516Z,2.37
2023-05-25T05:14:53.183Z,2.60
2023-05-25T05:17:23.178Z,2.87
2023-05-25T05:19:53.886Z,2.60
2023-05-25T05:22:22.639Z,2.47
2023-05-25T05:24:53.392Z,2.70
2023-05-25T05:27:27.167Z,2.43
2023-05-25T05:30:01.350Z,2.60
2023-05-25T05:32:30.025Z,2.37
2023-05-25T05:34:59.135Z,2.63
2023-05-25T05:37:36.375Z,2.47
2023-05-25T05:40:08.132Z,2.20
2023-05-25T05:42:37.878Z,2.30
2023-05-25T05:45:08.191Z,2.33
2023-05-25T05:47:36.807Z,2.63
2023-05-25T05:50:06.611Z,2.10
2023-05-25T05:52:37.174Z,2.30
2023-05-25T05:55:07.976Z,2.40
2023-05-25T05:57:38.319Z,2.33
2023-05-25T06:00:09.422Z,2.87
2023-05-25T06:02:44.060Z,2.43
2023-05-25T06:05:17.190Z,2.77
2023-05-25T06:07:46.030Z,2.73
2023-05-25T06:10:16.290Z,2.03
2023-05-25T06:12:45.812Z,2.97
2023-05-25T06:15:14.242Z,3.00
2023-05-25T06:17:43.357Z,3.00
2023-05-25T06:20:15.026Z,3.17
2023-05-25T06:22:44.147Z,2.50
2023-05-25T06:25:13.982Z,2.37
2023-05-25T06:27:43.863Z,2.23
2023-05-25T06:30:14.265Z,2.30
2023-05-25T06:32:43.743Z,2.30
2023-05-25T06:35:19.500Z,2.50
2023-05-25T06:37:52.893Z,2.90
2023-05-25T06:40:23.102Z,2.60
2023-05-25T06:42:54.080Z,2.50
2023-05-25T06:45:41.205Z,2.23
2023-05-25T06:48:10.031Z,2.53
2023-05-25T06:50:38.454Z,2.30
2023-05-25T06:53:06.813Z,2.10
2023-05-25T06:55:35.250Z,3.27
2023-05-25T06:58:05.092Z,2.80
2023-05-25T07:00:33.515Z,2.20
2023-05-25T07:03:02.806Z,2.30
2023-05-25T07:05:31.333Z,2.90
2023-05-25T07:07:59.803Z,2.43
2023-05-25T07:10:28.228Z,2.70
2023-05-25T07:12:56.583Z,2.60
2023-05-25T07:15:26.414Z,3.17
2023-05-25T07:17:57.226Z,2.70
2023-05-25T07:20:26.186Z,3.10
2023-05-25T07:22:54.703Z,3.03
2023-05-25T07:25:23.175Z,2.13
2023-05-25T07:27:55.088Z,2.67
2023-05-25T07:30:25.042Z,2.40
2023-05-25T07:32:53.737Z,3.07
2023-05-25T07:35:22.177Z,6.33
2023-05-25T07:38:08.542Z,4.00
2023-05-25T07:40:37.033Z,2.63
2023-05-25T07:43:08.097Z,2.30
2023-05-25T07:45:38.247Z,2.57
2023-05-25T07:48:07.846Z,2.87
2023-05-25T07:50:36.703Z,2.60
2023-05-25T07:53:07.549Z,2.30
2023-05-25T07:55:36.179Z,2.50
2023-05-25T07:58:07.620Z,2.50
2023-05-25T08:00:37.442Z,3.03
2023-05-25T08:03:06.200Z,2.70
2023-05-25T08:05:34.745Z,2.67
2023-05-25T08:08:03.367Z,2.60
2023-05-25T08:10:32.557Z,2.50
2023-05-25T08:13:01.034Z,2.73
2023-05-25T08:15:29.585Z,2.50
2023-05-25T08:17:59.586Z,2.50
2023-05-25T08:20:28.123Z,2.70
2023-05-25T08:22:56.668Z,3.13
2023-05-25T08:25:25.421Z,3.27
2023-05-25T08:27:53.775Z,2.67
2023-05-25T08:30:22.992Z,3.07
2023-05-25T08:32:51.660Z,3.10
2023-05-25T08:35:21.510Z,2.43
2023-05-25T08:37:49.931Z,2.90
2023-05-25T08:40:20.319Z,2.63
2023-05-25T08:42:49.433Z,2.92
2023-05-25T08:45:33.340Z,2.80
2023-05-25T08:48:06.144Z,2.60
2023-05-25T08:50:37.167Z,2.63
2023-05-25T08:53:09.837Z,2.80
2023-05-25T08:55:40.717Z,2.65
2023-05-25T08:58:16.359Z,2.65
2023-05-25T09:00:52.193Z,2.40
2023-05-25T09:03:22.027Z,2.58
2023-05-25T09:05:52.238Z,2.08
2023-05-25T09:08:23.002Z,2.80
2023-05-25T09:10:53.106Z,2.60
2023-05-25T09:13:23.049Z,2.80
2023-05-25T09:15:53.070Z,3.00
2023-05-25T09:18:21.717Z,2.90
2023-05-25T09:20:52.156Z,2.60
2023-05-25T09:23:21.061Z,3.05
2023-05-25T09:25:51.332Z,2.65
2023-05-25T09:30:52.798Z,2.80
2023-05-25T09:33:21.954Z,2.40
2023-05-25T09:35:53.307Z,3.08
2023-05-25T09:38:22.861Z,2.85
2023-05-25T09:40:52.564Z,2.95
2023-05-25T09:43:36.390Z,2.55
2023-05-25T09:46:09.067Z,2.80
2023-05-25T09:48:38.149Z,2.90
2023-05-25T09:51:11.365Z,2.70
2023-05-25T09:53:40.016Z,2.60
2023-05-25T09:56:08.795Z,2.90
2023-05-25T09:58:41.158Z,2.90
2023-05-25T10:01:09.701Z,2.40
2023-05-25T10:04:03.009Z,2.88
2023-05-25T10:06:35.241Z,3.38
2023-05-25T10:09:05.170Z,2.40
2023-05-25T10:11:36.937Z,3.30
2023-05-25T10:14:08.837Z,2.63
2023-05-25T10:16:41.188Z,3.00
2023-05-25T10:19:18.506Z,2.35
2023-05-25T10:21:57.851Z,3.15
2023-05-25T10:24:33.200Z,2.47
2023-05-25T10:27:14.645Z,3.10
2023-05-25T10:29:50.595Z,2.92
2023-05-25T10:32:22.068Z,2.78
2023-05-25T10:34:53.668Z,2.55
2023-05-25T10:37:27.700Z,3.13
2023-05-25T10:39:58.189Z,2.90
2023-05-25T10:42:29.670Z,2.90
2023-05-25T10:44:58.702Z,3.30
2023-05-25T10:47:27.614Z,2.88
2023-05-25T10:49:58.776Z,3.15
2023-05-25T10:52:33.269Z,3.00
2023-05-25T10:55:04.396Z,2.85
2023-05-25T10:57:33.159Z,2.60
2023-05-25T11:00:08.852Z,2.80
2023-05-25T11:02:53.764Z,2.63
2023-05-25T11:05:38.366Z,2.10
2023-05-25T11:08:10.156Z,2.70
2023-05-25T11:10:55.195Z,2.40
2023-05-25T11:13:41.188Z,2.70
2023-05-25T11:16:20.950Z,2.88
2023-05-25T11:18:57.509Z,2.97
2023-05-25T11:21:45.340Z,2.55
2023-05-25T11:24:19.652Z,2.53
2023-05-25T11:26:59.820Z,2.58
2023-05-25T11:29:33.316Z,2.30
2023-05-25T11:32:02.910Z,2.58
2023-05-25T11:34:33.334Z,2.60
2023-05-25T11:37:05.289Z,2.95
2023-05-25T11:39:35.215Z,3.10
2023-05-25T11:42:07.603Z,2.55
2023-05-25T11:44:38.089Z,2.60
2023-05-25T11:47:09.862Z,2.80
2023-05-25T11:49:44.292Z,2.50
2023-05-25T11:52:14.313Z,2.70
2023-05-25T11:54:45.212Z,2.60
2023-05-25T11:57:19.090Z,2.47
2023-05-25T11:59:51.196Z,2.80
2023-05-25T12:02:20.657Z,2.47
2023-05-25T12:04:56.363Z,2.30
2023-05-25T12:07:26.241Z,2.45
2023-05-25T12:10:07.048Z,2.90
2023-05-25T12:12:45.620Z,2.33
2023-05-25T12:15:19.716Z,2.60
2023-05-25T12:17:50.232Z,2.53
2023-05-25T12:20:19.798Z,3.00
2023-05-25T12:22:50.648Z,2.72
2023-05-25T12:25:24.516Z,3.17
2023-05-25T12:28:13.759Z,3.05
2023-05-25T12:30:43.084Z,2.88
2023-05-25T12:33:15.670Z,3.10
2023-05-25T12:35:49.085Z,3.10
2023-05-25T12:38:22.844Z,2.65
2023-05-25T12:41:07.079Z,2.35
2023-05-25T12:43:40.297Z,2.63
2023-05-25T12:46:08.927Z,2.22
2023-05-25T12:48:39.423Z,2.78
2023-05-25T12:51:09.964Z,2.05
2023-05-25T12:53:50.080Z,2.65
2023-05-25T12:56:19.918Z,2.20
2023-05-25T12:58:48.839Z,2.80
2023-05-25T13:01:17.830Z,2.50
2023-05-25T13:03:47.434Z,2.50
2023-05-25T13:06:27.006Z,2.38
2023-05-25T13:08:59.372Z,2.35
2023-05-25T13:11:52.591Z,2.42
2023-05-25T13:14:21.514Z,2.28
2023-05-25T13:16:50.609Z,2.45
2023-05-25T13:19:26.012Z,2.60
2023-05-25T13:21:56.182Z,2.35
2023-05-25T13:24:24.732Z,2.58
2023-05-25T13:26:55.285Z,2.22
2023-05-25T13:29:28.617Z,2.45
2023-05-25T13:31:57.082Z,2.55
2023-05-25T13:34:25.476Z,2.65
2023-05-25T13:36:53.993Z,3.13
2023-05-25T13:39:23.122Z,2.30
2023-05-25T13:41:55.900Z,2.33
2023-05-25T13:44:24.568Z,2.60
2023-05-25T13:46:53.113Z,2.33
2023-05-25T13:49:22.237Z,2.67
2023-05-25T13:51:51.322Z,2.17
2023-05-25T13:54:21.789Z,2.72
2023-05-25T13:56:50.202Z,2.50
2023-05-25T13:59:20.025Z,2.60
2023-05-25T14:02:04.406Z,2.58
2023-05-25T14:04:32.999Z,2.67
2023-05-25T14:07:02.699Z,2.13
2023-05-25T14:09:41.630Z,2.67
2023-05-25T14:12:11.364Z,2.38
2023-05-25T14:14:42.253Z,2.67
2023-05-25T14:17:10.828Z,2.42
2023-05-25T14:19:39.374Z,2.63
2023-05-25T14:22:13.783Z,2.63
2023-05-25T14:24:43.196Z,2.78
2023-05-25T14:27:36.575Z,2.75
2023-05-25T14:30:08.851Z,2.45
2023-05-25T14:32:37.410Z,2.53
2023-05-25T14:35:07.085Z,2.83
2023-05-25T14:37:35.526Z,2.17
2023-05-25T14:40:04.455Z,2.88
2023-05-25T14:42:32.967Z,2.83
2023-05-25T14:45:01.362Z,2.63
2023-05-25T14:47:31.604Z,2.53
2023-05-25T14:50:00.080Z,2.45
2023-05-25T14:52:28.500Z,2.70
2023-05-25T14:54:56.914Z,2.63
2023-05-25T14:57:25.621Z,2.67
2023-05-25T14:59:54.028Z,2.63
2023-05-25T15:02:22.512Z,2.70
2023-05-25T15:08:14.075Z,2.50
2023-05-25T15:10:42.505Z,2.30
2023-05-25T15:13:12.579Z,2.45
2023-05-25T15:15:42.643Z,2.22
2023-05-25T15:18:11.463Z,2.30
2023-05-25T15:20:41.518Z,2.78
2023-05-25T15:23:10.061Z,2.80
2023-05-25T15:25:38.498Z,2.60
2023-05-25T15:28:07.298Z,2.53
2023-05-25T15:30:36.436Z,2.33
2023-05-25T15:33:05.100Z,2.20
2023-05-25T15:35:35.945Z,2.38
2023-05-25T15:38:06.448Z,2.22
2023-05-25T15:41:32.160Z,2.40
2023-05-25T15:44:01.446Z,2.88
2023-05-25T15:46:30.131Z,2.28
2023-05-25T15:48:58.565Z,2.53
2023-05-25T15:51:27.044Z,2.28
2023-05-25T15:53:59.488Z,2.42
2023-05-25T15:56:30.133Z,2.70
2023-05-25T15:58:58.678Z,2.33
2023-05-25T16:01:27.023Z,2.50
2023-05-25T16:03:55.828Z,2.63
2023-05-25T16:06:24.236Z,2.70
2023-05-25T16:08:53.212Z,2.80
2023-05-25T16:11:23.631Z,2.70
2023-05-25T16:13:52.132Z,2.53
2023-05-25T16:16:20.795Z,1.98
2023-05-25T16:18:49.856Z,2.53
2023-05-25T16:21:18.478Z,2.67
2023-05-25T16:23:46.860Z,2.03
2023-05-25T16:26:15.255Z,2.40
2023-05-25T16:28:45.250Z,2.40
2023-05-25T16:31:15.633Z,2.97
2023-05-25T16:33:44.443Z,1.98
2023-05-25T16:36:14.081Z,2.83
2023-05-25T16:38:44.247Z,2.28
2023-05-25T16:41:15.139Z,2.30
2023-05-25T16:43:44.992Z,2.55
2023-05-25T16:46:21.133Z,2.25
2023-05-25T16:48:49.689Z,2.30
2023-05-25T16:51:20.952Z,2.35
2023-05-25T16:53:57.411Z,2.03
2023-05-25T16:56:26.386Z,2.45
2023-05-25T16:58:56.234Z,2.42
2023-05-25T17:01:24.678Z,2.45
2023-05-25T17:03:53.235Z,2.95
2023-05-25T17:06:21.802Z,2.92
2023-05-25T17:08:50.180Z,3.00
2023-05-25T17:11:19.127Z,2.60
2023-05-25T17:13:47.620Z,2.85
2023-05-25T17:16:54.589Z,3.22
2023-05-25T17:19:23.825Z,2.50
2023-05-25T17:21:52.454Z,2.70
2023-05-25T17:24:20.906Z,3.05
2023-05-25T17:26:51.571Z,3.05
2023-05-25T17:29:20.011Z,3.08
2023-05-25T17:31:49.017Z,3.20
2023-05-25T17:34:19.074Z,2.60
2023-05-25T17:36:48.115Z,2.78
2023-05-25T17:39:16.774Z,3.45
2023-05-25T17:41:46.122Z,3.20
2023-05-25T17:44:14.607Z,3.20
2023-05-25T17:46:42.997Z,3.17
2023-05-25T17:49:11.466Z,3.75
2023-05-25T17:51:42.225Z,3.60
2023-05-25T17:54:15.266Z,3.58
2023-05-25T17:56:43.695Z,3.28
2023-05-25T18:00:04.100Z,3.67
2023-05-25T18:02:40.848Z,3.55
2023-05-25T18:05:10.103Z,4.00
2023-05-25T18:07:39.828Z,3.25
2023-05-25T18:10:09.470Z,3.70
2023-05-25T18:12:37.967Z,3.63
2023-05-25T18:15:07.949Z,3.58
2023-05-25T18:17:36.800Z,3.80
2023-05-25T18:20:06.223Z,3.80
2023-05-25T18:22:34.626Z,3.20
2023-05-25T18:25:05.755Z,3.60
2023-05-25T18:27:34.727Z,3.58
2023-05-25T18:30:03.315Z,4.40
2023-05-25T18:32:31.828Z,3.83
2023-05-25T18:35:00.305Z,3.28
2023-05-25T18:37:29.394Z,3.85
2023-05-25T18:39:57.907Z,3.35
2023-05-25T18:42:27.782Z,3.15
2023-05-25T18:44:56.248Z,4.00
2023-05-25T18:47:27.726Z,3.72
2023-05-25T18:49:56.313Z,3.83
2023-05-25T18:52:24.676Z,3.78
2023-05-25T18:54:59.466Z,4.00
2023-05-25T18:57:29.725Z,3.30
2023-05-25T18:59:58.092Z,3.80
2023-05-25T19:02:29.260Z,3.53
2023-05-25T19:05:00.541Z,3.70
2023-05-25T19:07:29.080Z,3.60
2023-05-25T19:09:57.491Z,3.72
2023-05-25T19:12:25.931Z,3.47
2023-05-25T19:15:24.400Z,3.47
2023-05-25T19:18:19.691Z,3.67
2023-05-25T19:20:50.255Z,3.88
2023-05-25T19:23:20.015Z,3.65
2023-05-25T19:25:48.923Z,3.70
2023-05-25T19:28:17.635Z,4.03
2023-05-25T19:30:47.488Z,3.63
2023-05-25T19:33:15.981Z,3.80
2023-05-25T19:35:45.343Z,3.70
2023-05-25T19:38:14.373Z,3.78
2023-05-25T19:40:43.650Z,3.60
2023-05-25T19:43:12.213Z,3.88
2023-05-25T19:45:43.826Z,3.88
2023-05-25T19:48:13.867Z,3.65
2023-05-25T19:50:42.397Z,3.38
2023-05-25T19:53:11.014Z,3.33
2023-05-25T19:55:39.437Z,3.83
2023-05-25T19:58:07.930Z,3.70
2023-05-25T20:00:36.564Z,3.70
2023-05-25T20:03:05.392Z,3.10
2023-05-25T20:05:35.230Z,3.58
2023-05-25T20:08:03.824Z,3.72
2023-05-25T20:10:38.682Z,3.78
2023-05-25T20:13:08.730Z,4.35
2023-05-25T20:15:37.277Z,3.28
2023-05-25T20:18:06.165Z,3.53
2023-05-25T20:20:36.133Z,4.10
2023-05-25T20:23:04.632Z,3.50
2023-05-25T20:25:33.266Z,3.55
2023-05-25T20:28:01.820Z,3.83
2023-05-25T20:30:30.631Z,3.60
2023-05-25T20:32:59.425Z,4.05
2023-05-25T20:35:28.138Z,3.72
2023-05-25T20:37:57.980Z,3.10
2023-05-25T20:40:27.144Z,2.97
2023-05-25T20:42:55.564Z,3.47
2023-05-25T20:45:25.089Z,3.50
2023-05-25T20:48:01.497Z,3.70
2023-05-25T20:50:33.315Z,3.10
2023-05-25T20:53:03.196Z,3.63
2023-05-25T20:55:31.713Z,3.90
2023-05-25T20:58:01.039Z,3.70
2023-05-25T21:00:29.473Z,3.70
2023-05-25T21:02:58.070Z,3.13
2023-05-25T21:05:26.790Z,3.65
2023-05-25T21:07:55.246Z,2.92
2023-05-25T21:10:25.041Z,3.15
2023-05-25T21:12:53.519Z,3.50
2023-05-25T21:15:22.105Z,3.67
2023-05-25T21:17:50.748Z,3.30
2023-05-25T21:20:20.053Z,3.67
2023-05-25T21:22:48.555Z,3.33
2023-05-25T21:25:16.995Z,3.25
2023-05-25T21:27:46.990Z,2.92
2023-05-25T21:30:17.069Z,2.95
2023-05-25T21:32:46.741Z,3.42
2023-05-25T21:35:18.337Z,3.33
2023-05-25T21:37:48.144Z,3.45
2023-05-25T21:40:23.946Z,3.28
2023-05-25T21:42:54.354Z,3.38
2023-05-25T21:45:23.027Z,3.45
2023-05-25T21:47:51.483Z,3.28
2023-05-25T21:50:20.070Z,3.03
2023-05-25T21:52:48.762Z,3.47
2023-05-25T21:55:17.277Z,3.42
2023-05-25T21:57:45.721Z,3.10
2023-05-25T22:00:17.672Z,3.03
2023-05-25T22:02:46.132Z,3.70
2023-05-25T22:05:15.728Z,2.88
2023-05-25T22:07:44.139Z,3.03
2023-05-25T22:10:13.292Z,3.45
2023-05-25T22:12:42.670Z,3.10
2023-05-25T22:15:15.888Z,3.47
2023-05-25T22:17:46.209Z,3.25
2023-05-25T22:20:15.105Z,3.08
2023-05-25T22:22:44.703Z,2.95
2023-05-25T22:25:13.563Z,3.25
2023-05-25T22:27:42.090Z,2.97
2023-05-25T22:30:12.257Z,3.28
2023-05-25T22:32:43.918Z,3.30
2023-05-25T22:38:22.089Z,2.90
2023-05-25T22:40:50.404Z,3.33
2023-05-25T22:43:18.853Z,3.03
2023-05-25T22:45:47.414Z,3.22
2023-05-25T22:48:17.345Z,3.67
2023-05-25T22:50:45.791Z,2.80
2023-05-25T22:53:14.187Z,3.40
2023-05-25T22:55:43.362Z,3.65
2023-05-25T22:58:12.952Z,3.42
2023-05-25T23:00:41.313Z,3.60
2023-05-25T23:03:09.859Z,3.40
2023-05-25T23:05:39.686Z,2.53
2023-05-25T23:08:09.170Z,2.55
2023-05-25T23:10:37.853Z,3.08
2023-05-25T23:13:07.646Z,3.33
2023-05-25T23:15:39.267Z,2.90
2023-05-25T23:18:08.132Z,3.35
2023-05-25T23:20:36.732Z,3.00
2023-05-25T23:23:06.558Z,3.22
2023-05-25T23:25:34.964Z,3.33
2023-05-25T23:28:03.285Z,3.05
2023-05-25T23:30:31.694Z,3.47
2023-05-25T23:33:00.748Z,3.55
2023-05-25T23:35:29.474Z,2.85
2023-05-25T23:37:58.682Z,3.28
2023-05-25T23:40:29.135Z,3.33
2023-05-25T23:42:57.545Z,3.15
2023-05-25T23:45:25.918Z,2.80
2023-05-25T23:47:54.478Z,3.35
2023-05-25T23:50:23.037Z,2.97
2023-05-25T23:52:51.536Z,2.78
2023-05-25T23:55:20.060Z,3.60
2023-05-25T23:57:49.839Z,3.65
